Terminal Aerodrome Forecast
Issued by NWS Shreveport, LA

Home | Current Version | Previous Version | Text Only | Print | Product List | Glossary On
Versions: 1 2 3 4 5 6 7 8 9 10 11 12 13 14 15 16 17 18 19 20 21
000
FTUS44 KSHV 051236 AAA
TAFTXK
TAF AMD
KTXK 051236Z 0513/0612 00000KT 5SM BR BKN004
      TEMPO 0513/0515 3SM BR BKN015
     FM051500 19008KT P6SM BKN015 OVC130
     FM051800 22007KT P6SM VCTS BKN040CB OVC090
     FM052100 20008KT P6SM BKN050
     FM060000 17005KT P6SM BKN250
     FM061100 19007KT 6SM BR OVC015=

USA.gov is the U.S. government's official web portal to all federal, state and local government web resources and services.